createdAt,value
2022-10-09T00:01:31.042Z,9.10
2022-10-09T00:04:00.884Z,9.00
2022-10-09T00:06:31.635Z,9.00
2022-10-09T00:09:01.823Z,9.00
2022-10-09T00:11:33.609Z,9.00
2022-10-09T00:14:03.530Z,8.90
2022-10-09T00:16:32.010Z,8.90
2022-10-09T00:21:31.813Z,8.80
2022-10-09T00:24:03.406Z,8.80
2022-10-09T00:26:33.535Z,8.80
2022-10-09T00:29:01.881Z,8.70
2022-10-09T00:31:30.310Z,8.70
2022-10-09T00:33:58.672Z,8.60
2022-10-09T00:36:28.549Z,8.60
2022-10-09T00:38:57.194Z,8.60
2022-10-09T00:41:28.566Z,8.50
2022-10-09T00:44:00.424Z,8.50
2022-10-09T00:46:41.356Z,8.50
2022-10-09T00:49:18.928Z,8.40
2022-10-09T00:51:49.072Z,8.40
2022-10-09T00:54:25.318Z,8.40
2022-10-09T00:56:54.549Z,8.30
2022-10-09T00:59:24.988Z,8.40
2022-10-09T01:01:53.705Z,8.30
2022-10-09T01:04:22.082Z,8.30
2022-10-09T01:07:19.975Z,8.30
2022-10-09T01:09:56.865Z,8.20
2022-10-09T01:12:37.989Z,8.20
2022-10-09T01:15:17.909Z,8.20
2022-10-09T01:17:57.940Z,8.20
2022-10-09T01:20:43.228Z,8.20
2022-10-09T01:23:44.453Z,8.10
2022-10-09T01:26:34.417Z,8.10
2022-10-09T01:29:09.039Z,8.10
2022-10-09T01:31:41.805Z,8.10
2022-10-09T01:34:12.593Z,8.10
2022-10-09T01:36:41.742Z,8.10
2022-10-09T01:39:14.737Z,8.10
2022-10-09T01:44:22.919Z,8.00
2022-10-09T01:49:43.135Z,8.00
2022-10-09T01:52:27.968Z,7.90
2022-10-09T01:55:11.768Z,7.90
2022-10-09T01:57:49.216Z,7.80
2022-10-09T02:00:19.796Z,7.80
2022-10-09T02:02:49.084Z,7.80
2022-10-09T02:05:23.676Z,7.80
2022-10-09T02:10:23.087Z,7.70
2022-10-09T02:12:56.292Z,7.70
2022-10-09T02:15:32.034Z,7.70
2022-10-09T02:18:09.005Z,7.60
2022-10-09T02:20:41.720Z,7.60
2022-10-09T02:23:11.325Z,7.50
2022-10-09T02:25:39.773Z,7.50
2022-10-09T02:28:09.241Z,7.50
2022-10-09T02:30:53.005Z,7.50
2022-10-09T02:33:31.359Z,7.40
2022-10-09T02:41:00.093Z,7.40
2022-10-09T02:43:29.265Z,7.30
2022-10-09T02:45:58.836Z,7.30
2022-10-09T02:48:27.123Z,7.30
2022-10-09T02:53:23.930Z,7.30
2022-10-09T02:55:52.129Z,7.20
2022-10-09T02:58:20.409Z,7.20
2022-10-09T03:00:50.103Z,7.10
2022-10-09T03:03:20.818Z,7.10
2022-10-09T03:05:49.521Z,7.10
2022-10-09T03:08:17.728Z,7.10
2022-10-09T03:10:45.970Z,7.00
2022-10-09T03:18:11.647Z,7.00
2022-10-09T03:20:41.416Z,7.00
2022-10-09T03:23:09.633Z,7.00
2022-10-09T03:25:37.846Z,7.00
2022-10-09T03:28:06.158Z,7.00
2022-10-09T03:30:34.421Z,7.00
2022-10-09T03:35:31.336Z,7.00
2022-10-09T03:38:00.856Z,7.10
2022-10-09T03:42:57.894Z,7.00
2022-10-09T03:50:24.753Z,7.00
2022-10-09T03:52:53.011Z,7.00
2022-10-09T03:55:22.575Z,7.00
2022-10-09T03:57:50.773Z,7.00
2022-10-09T04:00:19.231Z,7.00
2022-10-09T04:02:47.883Z,7.00
2022-10-09T04:05:16.446Z,7.00
2022-10-09T04:12:43.243Z,7.00
2022-10-09T04:15:12.058Z,7.00
2022-10-09T04:17:40.300Z,7.00
2022-10-09T04:20:09.680Z,7.00
2022-10-09T04:22:37.854Z,7.00
2022-10-09T04:30:06.656Z,7.00
2022-10-09T04:32:34.913Z,6.90
2022-10-09T04:35:03.140Z,6.90
2022-10-09T04:37:31.375Z,6.90
2022-10-09T04:42:28.073Z,6.90
2022-10-09T04:44:56.254Z,6.80
2022-10-09T04:47:25.922Z,6.80
2022-10-09T04:49:54.072Z,6.80
2022-10-09T05:04:48.085Z,6.70
2022-10-09T05:09:44.834Z,6.70
2022-10-09T05:12:13.428Z,6.60
2022-10-09T05:14:41.668Z,6.60
2022-10-09T05:17:14.211Z,6.60
2022-10-09T05:19:42.951Z,6.60
2022-10-09T05:22:12.854Z,6.60
2022-10-09T05:24:41.176Z,6.60
2022-10-09T05:27:09.584Z,6.50
2022-10-09T05:32:06.402Z,6.60
2022-10-09T05:34:35.428Z,6.60
2022-10-09T05:39:35.811Z,6.50
2022-10-09T05:44:32.737Z,6.50
2022-10-09T05:47:01.017Z,6.50
2022-10-09T05:49:29.257Z,6.40
2022-10-09T05:51:57.525Z,6.40
2022-10-09T05:54:25.952Z,6.40
2022-10-09T05:56:55.550Z,6.50
2022-10-09T05:59:24.056Z,6.50
2022-10-09T06:01:54.777Z,6.50
2022-10-09T06:04:25.185Z,6.50
2022-10-09T06:09:25.418Z,6.60
2022-10-09T06:11:56.038Z,6.70
2022-10-09T06:16:53.677Z,6.90
2022-10-09T06:19:22.905Z,7.00
2022-10-09T06:21:51.849Z,7.10
2022-10-09T06:24:28.239Z,7.20
2022-10-09T06:26:59.346Z,7.40
2022-10-09T06:29:28.201Z,7.60
2022-10-09T06:34:25.783Z,7.90
2022-10-09T06:36:53.996Z,8.10
2022-10-09T06:39:22.640Z,8.30
2022-10-09T06:44:47.178Z,8.70
2022-10-09T06:47:15.389Z,8.90
2022-10-09T06:49:43.546Z,9.10
2022-10-09T06:52:11.824Z,9.30
2022-10-09T06:54:40.076Z,9.50
2022-10-09T06:59:36.777Z,9.90
2022-10-09T07:02:06.495Z,10.10
2022-10-09T07:04:34.801Z,10.30
2022-10-09T07:07:03.164Z,10.50
2022-10-09T07:09:31.432Z,10.70
2022-10-09T07:11:59.652Z,10.90
2022-10-09T07:14:28.062Z,11.10
2022-10-09T07:16:56.230Z,11.30
2022-10-09T07:19:25.776Z,11.60
2022-10-09T07:21:54.068Z,11.80
2022-10-09T07:24:24.536Z,12.00
2022-10-09T07:26:55.314Z,12.30
2022-10-09T07:29:24.003Z,12.70
2022-10-09T07:31:52.199Z,12.90
2022-10-09T07:34:20.624Z,13.30
2022-10-09T07:36:50.183Z,13.50
2022-10-09T07:39:20.006Z,13.80
2022-10-09T07:41:51.524Z,14.20
2022-10-09T07:44:20.216Z,14.50
2022-10-09T07:49:18.549Z,14.90
2022-10-09T07:51:46.938Z,15.20
2022-10-09T07:54:16.740Z,15.40
2022-10-09T07:56:45.205Z,15.80
2022-10-09T07:59:16.364Z,16.00
2022-10-09T08:01:44.673Z,16.30
2022-10-09T08:04:13.038Z,16.50
2022-10-09T08:06:41.371Z,16.70
2022-10-09T08:09:10.171Z,16.80
2022-10-09T08:11:41.038Z,17.00
2022-10-09T08:14:18.059Z,17.20
2022-10-09T08:16:47.975Z,17.20
2022-10-09T08:21:44.944Z,17.60
2022-10-09T08:24:13.398Z,17.80
2022-10-09T08:26:44.214Z,18.00
2022-10-09T08:31:44.356Z,18.30
2022-10-09T08:34:12.750Z,18.50
2022-10-09T08:39:09.948Z,18.70
2022-10-09T08:41:48.237Z,19.00
2022-10-09T08:44:21.875Z,19.20
2022-10-09T08:47:06.142Z,19.40
2022-10-09T08:49:44.603Z,19.50
2022-10-09T08:52:29.570Z,19.70
2022-10-09T08:55:03.167Z,19.90
2022-10-09T08:57:35.341Z,20.00
2022-10-09T09:00:03.746Z,20.20
2022-10-09T09:02:59.000Z,20.30
2022-10-09T09:05:40.313Z,20.50
2022-10-09T09:08:23.069Z,20.70
2022-10-09T09:10:58.629Z,20.80
2022-10-09T09:13:46.652Z,20.80
2022-10-09T09:16:26.117Z,21.00
2022-10-09T09:19:33.865Z,21.00
2022-10-09T09:22:02.465Z,21.20
2022-10-09T09:24:43.304Z,21.30
2022-10-09T09:27:15.319Z,21.40
2022-10-09T09:29:49.952Z,21.50
2022-10-09T09:32:21.826Z,21.50
2022-10-09T09:34:50.304Z,21.70
2022-10-09T09:37:18.826Z,21.70
2022-10-09T09:42:35.832Z,22.10
2022-10-09T09:45:14.544Z,22.30
2022-10-09T09:47:47.938Z,22.60
2022-10-09T09:50:42.259Z,22.70
2022-10-09T09:53:12.482Z,22.90
2022-10-09T09:55:40.944Z,23.10
2022-10-09T09:58:15.800Z,23.20
2022-10-09T10:00:56.970Z,23.40
2022-10-09T10:03:27.384Z,23.20
2022-10-09T10:08:27.744Z,23.50
2022-10-09T10:10:59.469Z,23.70
2022-10-09T10:13:35.783Z,23.80
2022-10-09T10:16:08.559Z,23.90
2022-10-09T10:18:42.122Z,24.10
2022-10-09T10:21:14.229Z,24.20
2022-10-09T10:23:46.424Z,24.30
2022-10-09T10:26:27.916Z,24.40
2022-10-09T10:29:03.420Z,24.50
2022-10-09T10:31:44.113Z,24.50
2022-10-09T10:34:22.152Z,24.30
2022-10-09T10:37:02.505Z,24.00
2022-10-09T10:39:41.317Z,23.80
2022-10-09T10:42:20.145Z,23.60
2022-10-09T10:44:56.728Z,23.60
2022-10-09T10:47:31.175Z,23.60
2022-10-09T10:49:59.581Z,23.50
2022-10-09T10:52:44.398Z,23.50
2022-10-09T10:55:30.271Z,23.60
2022-10-09T10:58:15.959Z,23.70
2022-10-09T11:00:58.569Z,23.60
2022-10-09T11:03:48.268Z,23.70
2022-10-09T11:06:28.817Z,23.80
2022-10-09T11:09:12.752Z,23.80
2022-10-09T11:11:49.800Z,23.80
2022-10-09T11:14:37.336Z,24.00
2022-10-09T11:17:22.906Z,23.90
2022-10-09T11:20:15.636Z,23.90
2022-10-09T11:23:06.726Z,24.00
2022-10-09T11:25:43.411Z,24.10
2022-10-09T11:28:19.513Z,24.20
2022-10-09T11:30:55.652Z,24.20
2022-10-09T11:33:33.877Z,24.20
2022-10-09T11:36:13.519Z,24.10
2022-10-09T11:38:47.492Z,24.40
2022-10-09T11:41:16.559Z,24.50
2022-10-09T11:44:01.796Z,24.70
2022-10-09T11:46:45.528Z,24.90
2022-10-09T11:49:24.985Z,25.00
2022-10-09T11:52:02.854Z,25.00
2022-10-09T11:54:31.921Z,24.90
2022-10-09T11:57:05.995Z,24.80
2022-10-09T11:59:37.286Z,25.00
2022-10-09T12:02:25.346Z,25.20
2022-10-09T12:04:55.748Z,25.20
2022-10-09T12:07:33.237Z,25.30
2022-10-09T12:10:08.175Z,25.40
2022-10-09T12:12:38.636Z,25.20
2022-10-09T12:15:27.120Z,25.10
2022-10-09T12:17:55.456Z,25.20
2022-10-09T12:20:26.879Z,25.20
2022-10-09T12:23:25.206Z,25.20
2022-10-09T12:25:50.843Z,25.20
2022-10-09T12:28:29.392Z,25.20
2022-10-09T12:31:00.696Z,25.00
2022-10-09T12:33:35.470Z,24.70
2022-10-09T12:36:12.765Z,24.70
2022-10-09T12:38:43.455Z,24.90
2022-10-09T12:41:20.880Z,25.30
2022-10-09T12:43:51.038Z,25.60
2022-10-09T12:46:30.156Z,25.60
2022-10-09T12:49:00.385Z,25.80
2022-10-09T12:51:32.310Z,25.50
2022-10-09T12:54:10.438Z,25.60
2022-10-09T12:56:40.141Z,25.60
2022-10-09T12:59:10.970Z,25.70
2022-10-09T13:01:41.169Z,25.70
2022-10-09T13:04:26.173Z,25.50
2022-10-09T13:06:54.871Z,25.50
2022-10-09T13:09:27.839Z,25.30
2022-10-09T13:12:00.540Z,25.40
2022-10-09T13:14:36.835Z,25.50
2022-10-09T13:17:05.220Z,25.80
2022-10-09T13:19:35.849Z,25.90
2022-10-09T13:22:18.814Z,26.00
2022-10-09T13:24:53.170Z,26.00
2022-10-09T13:27:22.349Z,26.00
2022-10-09T13:29:50.637Z,26.00
2022-10-09T13:32:19.744Z,25.90
2022-10-09T13:34:48.271Z,25.80
2022-10-09T13:37:20.086Z,25.80
2022-10-09T13:39:51.605Z,25.60
2022-10-09T13:42:20.724Z,25.30
2022-10-09T13:47:20.763Z,25.20
2022-10-09T13:52:21.219Z,25.30
2022-10-09T13:54:50.891Z,25.40
2022-10-09T14:04:45.116Z,25.30
2022-10-09T14:07:13.679Z,25.20
2022-10-09T14:09:42.012Z,25.00
2022-10-09T14:12:11.656Z,24.90
2022-10-09T14:14:39.950Z,24.90
2022-10-09T14:24:34.056Z,24.50
2022-10-09T14:27:02.287Z,24.60
2022-10-09T14:29:32.093Z,24.60
2022-10-09T14:32:00.329Z,24.60
2022-10-09T14:34:28.762Z,24.50
2022-10-09T14:36:57.013Z,24.30
2022-10-09T14:39:25.396Z,24.10
2022-10-09T14:41:53.623Z,23.80
2022-10-09T14:46:51.669Z,23.30
2022-10-09T14:49:21.452Z,23.20
2022-10-09T14:51:49.674Z,23.00
2022-10-09T14:56:46.336Z,22.70
2022-10-09T14:59:14.632Z,22.50
2022-10-09T15:04:14.124Z,21.90
2022-10-09T15:09:10.986Z,21.40
2022-10-09T15:11:39.293Z,21.20
2022-10-09T15:14:07.881Z,21.00
2022-10-09T15:16:36.527Z,20.80
2022-10-09T15:19:05.680Z,20.60
2022-10-09T15:21:36.958Z,20.40
2022-10-09T15:24:07.085Z,20.30
2022-10-09T15:26:37.256Z,20.20
2022-10-09T15:29:08.598Z,20.10
2022-10-09T15:31:39.388Z,20.00
2022-10-09T15:34:11.221Z,19.90
2022-10-09T15:36:43.077Z,19.90
2022-10-09T15:39:11.951Z,19.80
2022-10-09T15:41:42.796Z,19.70
2022-10-09T15:44:17.673Z,19.60
2022-10-09T15:46:47.290Z,19.50
2022-10-09T15:49:15.651Z,19.40
2022-10-09T15:51:45.384Z,19.40
2022-10-09T15:54:14.712Z,19.30
2022-10-09T15:56:43.224Z,19.20
2022-10-09T15:59:13.598Z,19.20
2022-10-09T16:01:41.852Z,19.00
2022-10-09T16:04:10.251Z,18.90
2022-10-09T16:09:09.113Z,18.70
2022-10-09T16:11:37.367Z,18.60
2022-10-09T16:14:05.738Z,18.50
2022-10-09T16:19:05.071Z,18.40
2022-10-09T16:21:34.066Z,18.20
2022-10-09T16:24:02.497Z,18.20
2022-10-09T16:26:32.182Z,18.10
2022-10-09T16:29:01.595Z,18.00
2022-10-09T16:31:34.651Z,17.90
2022-10-09T16:34:03.866Z,17.80
2022-10-09T16:36:32.467Z,17.70
2022-10-09T16:39:00.800Z,17.60
2022-10-09T16:41:29.040Z,17.50
2022-10-09T16:44:00.151Z,17.40
2022-10-09T16:46:31.556Z,17.30
2022-10-09T16:49:02.684Z,17.20
2022-10-09T16:51:33.453Z,17.10
2022-10-09T16:54:04.688Z,17.00
2022-10-09T16:56:36.620Z,16.90
2022-10-09T16:59:08.860Z,16.90
2022-10-09T17:01:40.242Z,16.70
2022-10-09T17:04:08.496Z,16.70
2022-10-09T17:06:36.984Z,16.50
2022-10-09T17:09:13.726Z,16.50
2022-10-09T17:11:42.683Z,16.30
2022-10-09T17:14:12.923Z,16.30
2022-10-09T17:16:43.589Z,16.20
2022-10-09T17:19:11.966Z,16.10
2022-10-09T17:21:40.348Z,15.90
2022-10-09T17:24:08.856Z,15.80
2022-10-09T17:26:37.571Z,15.80
2022-10-09T17:29:07.381Z,15.70
2022-10-09T17:31:36.963Z,15.60
2022-10-09T17:34:06.573Z,15.50
2022-10-09T17:36:39.875Z,15.40
2022-10-09T17:39:12.085Z,15.40
2022-10-09T17:41:40.489Z,15.30
2022-10-09T17:44:09.635Z,15.30
2022-10-09T17:46:39.336Z,15.20
2022-10-09T17:49:07.841Z,15.10
2022-10-09T17:51:39.514Z,15.00
2022-10-09T17:54:12.013Z,14.90
2022-10-09T17:59:10.142Z,14.80
2022-10-09T18:01:39.963Z,14.70
2022-10-09T18:04:08.302Z,14.70
2022-10-09T18:06:36.932Z,14.60
2022-10-09T18:11:34.148Z,14.50
2022-10-09T18:16:38.009Z,14.40
2022-10-09T18:19:11.439Z,14.30
2022-10-09T18:21:41.704Z,14.10
2022-10-09T18:26:38.956Z,14.10
2022-10-09T18:29:07.556Z,13.90
2022-10-09T18:31:36.660Z,13.80
2022-10-09T18:34:04.904Z,13.80
2022-10-09T18:36:34.947Z,13.60
2022-10-09T18:39:06.830Z,13.50
2022-10-09T18:41:38.074Z,13.40
2022-10-09T18:44:12.094Z,13.30
2022-10-09T18:46:45.951Z,13.30
2022-10-09T18:49:18.642Z,13.20
2022-10-09T18:51:49.414Z,13.10
2022-10-09T18:54:19.349Z,13.10
2022-10-09T18:56:48.200Z,13.10
2022-10-09T18:59:20.368Z,13.00
2022-10-09T19:01:48.940Z,13.00
2022-10-09T19:04:18.883Z,13.00
2022-10-09T19:06:48.864Z,12.90
2022-10-09T19:09:17.494Z,12.90
2022-10-09T19:11:45.840Z,12.90
2022-10-09T19:14:15.793Z,12.80
2022-10-09T19:16:44.041Z,12.80
2022-10-09T19:19:12.602Z,12.70
2022-10-09T19:24:14.740Z,12.60
2022-10-09T19:26:43.108Z,12.60
2022-10-09T19:31:40.151Z,12.50
2022-10-09T19:34:08.764Z,12.50
2022-10-09T19:36:37.563Z,12.50
2022-10-09T19:39:06.393Z,12.40
2022-10-09T19:41:36.417Z,12.40
2022-10-09T19:44:04.613Z,12.40
2022-10-09T19:46:32.815Z,12.40
2022-10-09T19:49:01.861Z,12.30
2022-10-09T19:51:30.184Z,12.30
2022-10-09T19:53:59.075Z,12.30
2022-10-09T19:56:30.467Z,12.20
2022-10-09T19:59:02.796Z,12.20
2022-10-09T20:01:32.834Z,12.10
2022-10-09T20:04:04.147Z,12.10
2022-10-09T20:06:32.621Z,12.10
2022-10-09T20:09:00.808Z,12.10
2022-10-09T20:11:29.135Z,12.00
2022-10-09T20:13:57.680Z,12.00
2022-10-09T20:16:31.925Z,12.00
2022-10-09T20:21:31.737Z,12.00
2022-10-09T20:24:01.620Z,12.00
2022-10-09T20:26:31.393Z,12.00
2022-10-09T20:29:00.042Z,12.00
2022-10-09T20:31:31.065Z,11.90
2022-10-09T20:33:59.933Z,11.90
2022-10-09T20:36:31.497Z,11.80
2022-10-09T20:39:02.502Z,11.80
2022-10-09T20:41:32.057Z,11.80
2022-10-09T20:44:02.785Z,11.80
2022-10-09T20:46:35.092Z,11.80
2022-10-09T20:49:06.054Z,11.80
2022-10-09T20:51:36.866Z,11.80
2022-10-09T20:54:07.062Z,11.70
2022-10-09T20:56:36.551Z,11.70
2022-10-09T21:01:36.739Z,11.70
2022-10-09T21:04:05.609Z,11.70
2022-10-09T21:06:36.012Z,11.70
2022-10-09T21:09:04.973Z,11.70
2022-10-09T21:19:05.142Z,11.60
2022-10-09T21:21:34.711Z,11.50
2022-10-09T21:24:03.168Z,11.50
2022-10-09T21:26:35.740Z,11.50
2022-10-09T21:29:04.943Z,11.50
2022-10-09T21:31:35.118Z,11.40
2022-10-09T21:34:03.384Z,11.50
2022-10-09T21:36:56.215Z,11.50
2022-10-09T21:39:29.723Z,11.50
2022-10-09T21:41:58.117Z,11.50
2022-10-09T21:46:57.154Z,11.40
2022-10-09T21:49:27.935Z,11.40
2022-10-09T21:51:56.664Z,11.30
2022-10-09T21:54:25.133Z,11.30
2022-10-09T21:59:21.948Z,11.10
2022-10-09T22:01:50.124Z,11.10
2022-10-09T22:04:19.718Z,11.10
2022-10-09T22:11:45.396Z,10.90
2022-10-09T22:14:13.747Z,10.90
2022-10-09T22:21:40.336Z,10.80
2022-10-09T22:24:08.557Z,10.70
2022-10-09T22:26:37.500Z,10.60
2022-10-09T22:34:03.725Z,10.60
2022-10-09T22:36:33.999Z,10.60
2022-10-09T22:39:07.339Z,10.50
2022-10-09T22:41:36.432Z,10.50
2022-10-09T22:44:07.533Z,10.50
2022-10-09T22:46:39.037Z,10.50
2022-10-09T22:49:11.300Z,10.40
2022-10-09T22:51:39.720Z,10.40
2022-10-09T22:54:09.532Z,10.40
2022-10-09T22:56:41.484Z,10.40
2022-10-09T22:59:11.737Z,10.40
2022-10-09T23:01:45.366Z,10.40
2022-10-09T23:04:15.777Z,10.40
2022-10-09T23:06:45.473Z,10.30
2022-10-09T23:09:16.097Z,10.30
2022-10-09T23:11:44.861Z,10.30
2022-10-09T23:14:13.966Z,10.30
2022-10-09T23:16:42.844Z,10.20
2022-10-09T23:19:11.809Z,10.20
2022-10-09T23:21:43.118Z,10.10
2022-10-09T23:24:17.855Z,10.10
2022-10-09T23:26:47.513Z,10.10
2022-10-09T23:29:18.600Z,10.00
2022-10-09T23:31:48.464Z,10.00
2022-10-09T23:39:15.354Z,9.90
2022-10-09T23:44:12.124Z,9.90
2022-10-09T23:46:40.408Z,9.90
2022-10-09T23:49:08.647Z,9.80
2022-10-09T23:54:07.105Z,9.80
2022-10-09T23:56:38.107Z,9.80
2022-10-09T23:59:07.698Z,9.80
